Time;durP1;ratioP1;P1;durP2;ratioP2;P2;SDS_P1;SDS_P2;PMS_P1;PMS_P2;Temp;Humidity;BMP_temperature;BMP_pressure;BME280_temperature;BME280_humidity;BME280_pressure;Samples;Min_cycle;Max_cycle;Signal;HPM_P1;HPM_P2
2022/02/09 00:04:40;;;;;;;;;;;;;;;;;;5004740;28;19918;-77
2022/02/09 00:07:19;;;;;;;;;;;;;;;;;;5019089;28;19956;-76
2022/02/09 00:09:46;;;;;;;;;;;;;;;;;;5004583;28;20468;-77
2022/02/09 00:12:27;;;;;;;;;;;;;;;;;;5010805;28;19995;-77
2022/02/09 00:17:36;;;;;;;;;;;;;;;;;;5000879;28;19956;-72
2022/02/09 01:57:14;;;;;;;;;;;;;;;;;;5002820;28;20001;-73
2022/02/09 01:59:41;;;;;;;;;;;;;;;;;;5015542;28;20020;-73
2022/02/09 02:02:06;;;;;;;;;;;;;;;;;;4998734;28;19914;-74
2022/02/09 02:04:32;;;;;;;;;;;;;;;;;;5013566;28;19924;-74
2022/02/09 02:06:57;;;;;;;;;;;;;;;;;;5002545;28;19996;-74
2022/02/09 02:09:25;;;;;;;;;;;;;;;;;;5015588;28;19914;-72
2022/02/09 02:11:57;;;;;;;;;;;;;;;;;;5016984;28;19953;-74
2022/02/09 02:19:29;;;;;;;;;;;;;;;;;;5004566;28;19921;-73
2022/02/09 02:22:10;;;;;;;;;;;;;;;;;;4991760;28;19929;-73
2022/02/09 02:27:51;;;;;;;;;;;;;;;;;;5002989;28;19920;-73
2022/02/09 02:33:23;;;;;;;;;;;;;;;;;;5001234;28;20386;-74
2022/02/09 02:36:05;;;;;;;;;;;;;;;;;;5013346;28;20228;-73
2022/02/09 03:18:08;;;;;;;;;;;;;;;;;;5001716;28;19921;-74
2022/02/09 03:20:41;;;;;;;;;;;;;;;;;;5018426;28;19917;-74
2022/02/09 03:42:13;;;;;;;;;;;;;;;;;;4998743;28;19959;-74
2022/02/09 03:47:38;;;;;;;;;;;;;;;;;;5002967;28;19920;-73
2022/02/09 03:55:42;;;;;;;;;;;;;;;;;;4997159;28;20049;-73
2022/02/09 03:58:07;;;;;;;;;;;;;;;;;;5016687;28;19987;-74
2022/02/09 04:00:37;;;;;;;;;;;;;;;;;;5011446;28;19917;-74
2022/02/09 04:03:04;;;;;;;;;;;;;;;;;;4998344;28;19910;-72
2022/02/09 04:05:30;;;;;;;;;;;;;;;;;;5016590;28;20066;-73
2022/02/09 04:07:56;;;;;;;;;;;;;;;;;;5018193;28;20325;-73
2022/02/09 04:10:28;;;;;;;;;;;;;;;;;;5012902;28;19921;-74
2022/02/09 04:15:45;;;;;;;;;;;;;;;;;;4999652;28;19927;-73
2022/02/09 04:18:31;;;;;;;;;;;;;;;;;;4996332;28;19914;-74
2022/02/09 04:40:04;;;;;;;;;;;;;;;;;;4996045;28;20204;-74
2022/02/09 04:50:19;;;;;;;;;;;;;;;;;;5006230;28;19917;-75
2022/02/09 04:58:03;;;;;;;;;;;;;;;;;;5004061;28;19921;-74
2022/02/09 05:00:46;;;;;;;;;;;;;;;;;;5016038;28;19925;-73
2022/02/09 05:27:35;;;;;;;;;;;;;;;;;;4993919;28;19917;-73
2022/02/09 05:30:06;;;;;;;;;;;;;;;;;;5020132;28;19936;-72
2022/02/09 05:32:31;;;;;;;;;;;;;;;;;;5014279;28;20374;-73
2022/02/09 05:34:56;;;;;;;;;;;;;;;;;;5014594;28;19920;-72
2022/02/09 05:37:22;;;;;;;;;;;;;;;;;;5005310;28;19917;-75
2022/02/09 05:39:47;;;;;;;;;;;;;;;;;;4998646;28;19991;-73
2022/02/09 05:42:12;;;;;;;;;;;;;;;;;;5005539;28;19914;-73
2022/02/09 05:44:38;;;;;;;;;;;;;;;;;;5005750;28;20338;-74
2022/02/09 05:50:39;;;;;;;;;;;;;;;;;;5002806;28;19971;-73
2022/02/09 05:52:56;;;;;;;;;;;;;;;;;;5001633;28;19918;-73
2022/02/09 05:57:54;;;;;;;;;;;;;;;;;;4999727;28;19929;-72
2022/02/09 06:00:19;;;;;;;;;;;;;;;;;;5004846;28;19913;-73
2022/02/09 06:02:45;;;;;;;;;;;;;;;;;;5012015;28;19917;-73
2022/02/09 06:05:12;;;;;;;;;;;;;;;;;;4996856;28;19920;-73
2022/02/09 06:07:38;;;;;;;;;;;;;;;;;;4997897;28;19914;-74
2022/02/09 06:10:03;;;;;;;;;;;;;;;;;;5012787;28;19921;-73
2022/02/09 06:12:40;;;;;;;;;;;;;;;;;;5002826;28;20010;-73
2022/02/09 06:20:34;;;;;;;;;;;;;;;;;;4998674;28;19923;-74
2022/02/09 06:23:03;;;;;;;;;;;;;;;;;;5004610;28;19917;-73
2022/02/09 06:25:30;;;;;;;;;;;;;;;;;;5004019;28;20602;-74
2022/02/09 06:27:55;;;;;;;;;;;;;;;;;;5003464;28;19917;-74
2022/02/09 06:30:20;;;;;;;;;;;;;;;;;;5013566;28;19979;-73
2022/02/09 06:32:46;;;;;;;;;;;;;;;;;;5004261;28;19913;-73
2022/02/09 06:35:11;;;;;;;;;;;;;;;;;;5004215;28;19961;-74
2022/02/09 06:37:41;;;;;;;;;;;;;;;;;;4997561;28;19956;-74
2022/02/09 06:40:06;;;;;;;;;;;;;;;;;;5018048;28;20003;-73
2022/02/09 06:42:34;;;;;;;;;;;;;;;;;;4996612;28;20377;-72
2022/02/09 06:45:06;;;;;;;;;;;;;;;;;;5011775;28;20381;-74
2022/02/09 06:47:31;;;;;;;;;;;;;;;;;;5017530;28;19924;-73
2022/02/09 06:50:00;;;;;;;;;;;;;;;;;;4996963;28;19913;-73
2022/02/09 06:52:26;;;;;;;;;;;;;;;;;;5003999;28;19993;-74
2022/02/09 06:55:10;;;;;;;;;;;;;;;;;;5000729;28;20057;-73
2022/02/09 07:00:14;;;;;;;;;;;;;;;;;;5000194;28;19909;-74
2022/02/09 07:02:41;;;;;;;;;;;;;;;;;;4997730;28;19917;-73
2022/02/09 07:05:07;;;;;;;;;;;;;;;;;;5012746;28;19910;-73
2022/02/09 07:07:33;;;;;;;;;;;;;;;;;;5018227;28;19913;-73
2022/02/09 07:09:59;;;;;;;;;;;;;;;;;;5017728;28;19916;-73
2022/02/09 07:12:25;;;;;;;;;;;;;;;;;;4997963;28;20429;-73
2022/02/09 07:14:52;;;;;;;;;;;;;;;;;;5006535;28;19913;-74
2022/02/09 07:17:18;;;;;;;;;;;;;;;;;;5011678;28;19927;-74
2022/02/09 07:19:50;;;;;;;;;;;;;;;;;;5009355;28;19909;-74
2022/02/09 07:22:23;;;;;;;;;;;;;;;;;;5021618;28;19917;-73
2022/02/09 07:24:48;;;;;;;;;;;;;;;;;;5002081;28;19910;-74
2022/02/09 07:27:39;;;;;;;;;;;;;;;;;;5005357;28;19917;-72
2022/02/09 07:30:05;;;;;;;;;;;;;;;;;;5003034;28;19913;-75
2022/02/09 07:32:30;;;;;;;;;;;;;;;;;;5001996;28;19914;-75
2022/02/09 07:34:55;;;;;;;;;;;;;;;;;;4990340;28;19922;-75
2022/02/09 07:37:21;;;;;;;;;;;;;;;;;;4992190;28;19925;-74
2022/02/09 07:39:46;;;;;;;;;;;;;;;;;;4993239;28;19921;-73
2022/02/09 07:42:19;;;;;;;;;;;;;;;;;;4996531;28;19917;-74
2022/02/09 07:50:48;;;;;;;;;;;;;;;;;;4988884;28;20380;-74
2022/02/09 07:53:07;;;;;;;;;;;;;;;;;;4981951;28;19925;-74
2022/02/09 07:55:34;;;;;;;;;;;;;;;;;;4991197;28;19917;-74
2022/02/09 07:58:00;;;;;;;;;;;;;;;;;;5006899;28;20320;-74
2022/02/09 08:00:25;;;;;;;;;;;;;;;;;;4990124;28;20012;-74
2022/02/09 08:02:52;;;;;;;;;;;;;;;;;;5000103;28;20007;-73
2022/02/09 08:05:18;;;;;;;;;;;;;;;;;;5003572;28;20027;-73
2022/02/09 08:07:45;;;;;;;;;;;;;;;;;;4997968;28;19922;-73
2022/02/09 08:10:19;;;;;;;;;;;;;;;;;;4989896;28;19936;-72
2022/02/09 08:22:43;;;;;;;;;;;;;;;;;;4981112;28;20381;-73
2022/02/09 08:24:13;;;;;;;;;;;;;;;;;;4985913;28;19993;-73
2022/02/09 08:34:08;;;;;;;;;;;;;;;;;;4988209;28;19913;-74
2022/02/09 08:36:33;;;;;;;;;;;;;;;;;;4986857;28;19929;-74
2022/02/09 08:38:58;;;;;;;;;;;;;;;;;;4986991;28;19960;-73
2022/02/09 08:41:24;;;;;;;;;;;;;;;;;;4982119;28;20028;-74
2022/02/09 08:43:49;;;;;;;;;;;;;;;;;;4983787;28;20266;-74
2022/02/09 08:46:16;;;;;;;;;;;;;;;;;;5000273;28;19921;-74
2022/02/09 08:48:42;;;;;;;;;;;;;;;;;;4987220;28;19922;-75
2022/02/09 08:51:08;;;;;;;;;;;;;;;;;;4981822;28;19913;-73
2022/02/09 08:53:34;;;;;;;;;;;;;;;;;;4984706;28;19948;-73
2022/02/09 08:56:00;;;;;;;;;;;;;;;;;;4985221;28;20629;-73
2022/02/09 08:58:25;;;;;;;;;;;;;;;;;;4984032;28;20009;-73
2022/02/09 09:00:57;;;;;;;;;;;;;;;;;;4985244;28;20009;-74
2022/02/09 09:03:27;;;;;;;;;;;;;;;;;;4985545;28;20574;-72
2022/02/09 09:05:56;;;;;;;;;;;;;;;;;;4992410;28;19921;-73
2022/02/09 10:31:48;;;;;;;;;;;;;;;;;;5018624;28;19920;-74
2022/02/09 10:33:58;;;;;;;;;;;;;;;;;;5017987;28;19913;-73
2022/02/09 10:36:24;;;;;;;;;;;;;;;;;;5018516;28;19917;-73
2022/02/09 10:39:02;;;;;;;;;;;;;;;;;;5010325;28;19971;-74
2022/02/09 10:41:33;;;;;;;;;;;;;;;;;;5018156;28;19925;-74
2022/02/09 10:44:06;;;;;;;;;;;;;;;;;;5011341;28;19916;-73
2022/02/09 10:46:32;;;;;;;;;;;;;;;;;;5024659;28;19917;-75
2022/02/09 10:48:59;;;;;;;;;;;;;;;;;;5022306;28;19924;-73
2022/02/09 10:51:38;;;;;;;;;;;;;;;;;;5026470;28;20033;-74
2022/02/09 10:54:09;;;;;;;;;;;;;;;;;;5040959;28;19963;-72
2022/02/09 10:56:37;;;;;;;;;;;;;;;;;;5025021;28;19944;-76
2022/02/09 10:59:07;;;;;;;;;;;;;;;;;;5030352;28;19917;-76
2022/02/09 11:01:33;;;;;;;;;;;;;;;;;;5057114;28;19919;-73
2022/02/09 11:03:59;;;;;;;;;;;;;;;;;;5037386;28;19917;-72
2022/02/09 11:06:30;;;;;;;;;;;;;;;;;;5032913;28;20288;-74
2022/02/09 11:08:55;;;;;;;;;;;;;;;;;;5040634;28;19995;-74
2022/02/09 11:11:21;;;;;;;;;;;;;;;;;;5039921;28;20420;-73
2022/02/09 11:13:46;;;;;;;;;;;;;;;;;;5032203;28;19917;-73
2022/02/09 11:16:12;;;;;;;;;;;;;;;;;;5042134;28;20287;-73
2022/02/09 11:18:38;;;;;;;;;;;;;;;;;;5028490;28;20302;-73
2022/02/09 11:21:11;;;;;;;;;;;;;;;;;;5010963;28;19928;-72
2022/02/09 11:23:36;;;;;;;;;;;;;;;;;;5023173;28;20159;-73
2022/02/09 11:26:30;;;;;;;;;;;;;;;;;;5031669;28;19913;-71
2022/02/09 11:29:20;;;;;;;;;;;;;;;;;;5043227;28;19970;-72
2022/02/09 11:32:06;;;;;;;;;;;;;;;;;;5038271;28;19917;-71
2022/02/09 11:34:50;;;;;;;;;;;;;;;;;;5037343;28;19924;-69
2022/02/09 11:37:36;;;;;;;;;;;;;;;;;;5039715;28;19921;-71
2022/02/09 11:40:19;;;;;;;;;;;;;;;;;;5031267;28;19921;-71
2022/02/09 11:42:52;;;;;;;;;;;;;;;;;;5032826;28;20109;-73
2022/02/09 11:45:56;;;;;;;;;;;;;;;;;;5030075;28;20011;-71
2022/02/09 11:51:43;;;;;;;;;;;;;;;;;;5027718;28;19919;-72
2022/02/09 11:55:30;;;;;;;;;;;;;;;;;;5031715;28;19917;-71
2022/02/09 12:10:48;;;;;;;;;;;;;;;;;;5033554;28;20044;-72
2022/02/09 12:13:32;;;;;;;;;;;;;;;;;;5034109;28;19917;-71
2022/02/09 12:18:27;;;;;;;;;;;;;;;;;;5040897;28;19940;-70
2022/02/09 12:21:16;;;;;;;;;;;;;;;;;;5036831;28;19959;-71
2022/02/09 12:23:44;;;;;;;;;;;;;;;;;;5031135;28;20040;-71
2022/02/09 12:26:11;;;;;;;;;;;;;;;;;;5040667;28;20468;-74
2022/02/09 12:28:39;;;;;;;;;;;;;;;;;;5038215;28;20050;-71
2022/02/09 12:31:11;;;;;;;;;;;;;;;;;;5038057;28;19928;-73
2022/02/09 12:33:41;;;;;;;;;;;;;;;;;;5046038;28;19938;-72
2022/02/09 12:36:07;;;;;;;;;;;;;;;;;;5040559;28;19931;-71
2022/02/09 12:38:32;;;;;;;;;;;;;;;;;;5031453;28;19917;-72
2022/02/09 12:41:07;;;;;;;;;;;;;;;;;;5041630;28;19920;-71
2022/02/09 12:44:02;;;;;;;;;;;;;;;;;;5025672;28;19917;-72
2022/02/09 12:46:30;;;;;;;;;;;;;;;;;;5032509;28;19912;-72
2022/02/09 12:49:03;;;;;;;;;;;;;;;;;;5035598;28;20402;-71
2022/02/09 12:51:29;;;;;;;;;;;;;;;;;;5037615;28;19919;-70
2022/02/09 12:53:55;;;;;;;;;;;;;;;;;;5028006;28;19917;-70
2022/02/09 12:56:26;;;;;;;;;;;;;;;;;;5031727;28;20407;-71
2022/02/09 12:59:03;;;;;;;;;;;;;;;;;;5052675;28;20358;-73
2022/02/09 13:01:50;;;;;;;;;;;;;;;;;;5034796;28;19961;-72
2022/02/09 13:04:35;;;;;;;;;;;;;;;;;;5029573;28;20070;-72
2022/02/09 13:07:02;;;;;;;;;;;;;;;;;;5035353;28;19921;-71
2022/02/09 13:09:27;;;;;;;;;;;;;;;;;;5041282;28;20011;-72
2022/02/09 13:11:53;;;;;;;;;;;;;;;;;;5036381;28;20051;-70
2022/02/09 13:14:31;;;;;;;;;;;;;;;;;;5031268;28;20334;-70
2022/02/09 13:17:28;;;;;;;;;;;;;;;;;;5034484;28;19921;-72
2022/02/09 13:23:11;;;;;;;;;;;;;;;;;;5037320;28;19919;-72
2022/02/09 14:12:38;;;;;;;;;;;;;;;;;;5024878;28;19923;-73
2022/02/09 14:18:14;;;;;;;;;;;;;;;;;;5034692;28;19917;-75
2022/02/09 14:58:39;;;;;;;;;;;;;;;;;;5034863;28;20007;-73
2022/02/09 15:01:19;;;;;;;;;;;;;;;;;;5034231;28;20395;-72
2022/02/09 15:04:02;;;;;;;;;;;;;;;;;;5032825;28;20261;-70
2022/02/09 15:09:17;;;;;;;;;;;;;;;;;;5028870;28;19917;-71
2022/02/09 15:11:58;;;;;;;;;;;;;;;;;;5038187;28;19920;-72
2022/02/09 15:17:29;;;;;;;;;;;;;;;;;;5033673;28;20250;-72
2022/02/09 15:22:22;;;;;;;;;;;;;;;;;;5033872;28;19971;-71
2022/02/09 15:24:49;;;;;;;;;;;;;;;;;;5030999;28;20199;-72
2022/02/09 15:27:20;;;;;;;;;;;;;;;;;;5036891;28;19917;-75
2022/02/09 15:29:47;;;;;;;;;;;;;;;;;;5035694;28;20369;-71
2022/02/09 15:32:31;;;;;;;;;;;;;;;;;;5031964;28;19917;-73
2022/02/09 15:35:05;;;;;;;;;;;;;;;;;;5021094;28;19928;-71
2022/02/09 15:40:13;;;;;;;;;;;;;;;;;;5030665;28;19921;-72
2022/02/09 15:59:17;;;;;;;;;;;;;;;;;;5031055;28;19917;-72
2022/02/09 16:08:19;;;;;;;;;;;;;;;;;;5032851;28;20355;-72
2022/02/09 16:23:57;;;;;;;;;;;;;;;;;;5029365;28;19917;-72
2022/02/09 16:37:31;;;;;;;;;;;;;;;;;;5039998;28;19916;-69
2022/02/09 16:45:24;;;;;;;;;;;;;;;;;;5035809;28;20288;-72
2022/02/09 16:48:01;;;;;;;;;;;;;;;;;;5039277;28;19912;-72
2022/02/09 16:50:40;;;;;;;;;;;;;;;;;;5029713;28;20333;-72
2022/02/09 16:53:20;;;;;;;;;;;;;;;;;;5033983;28;20277;-73
2022/02/09 17:19:32;;;;;;;;;;;;;;;;;;5039803;28;19927;-71
2022/02/09 17:21:58;;;;;;;;;;;;;;;;;;5020736;28;19917;-72
2022/02/09 17:24:23;;;;;;;;;;;;;;;;;;5034214;28;20288;-71
2022/02/09 17:26:49;;;;;;;;;;;;;;;;;;5038056;28;20277;-75
2022/02/09 17:29:20;;;;;;;;;;;;;;;;;;5036458;28;19924;-72
2022/02/09 17:31:55;;;;;;;;;;;;;;;;;;5037836;28;19939;-72
2022/02/09 17:53:24;;;;;;;;;;;;;;;;;;5041473;28;19919;-71
2022/02/09 17:58:26;;;;;;;;;;;;;;;;;;5042106;28;19986;-72
2022/02/09 18:00:51;;;;;;;;;;;;;;;;;;5030888;28;20384;-74
2022/02/09 18:03:17;;;;;;;;;;;;;;;;;;5049018;28;19952;-71
2022/02/09 18:05:45;;;;;;;;;;;;;;;;;;5028471;28;19913;-71
2022/02/09 18:08:20;;;;;;;;;;;;;;;;;;5036668;28;19916;-72
2022/02/09 18:37:42;;;;;;;;;;;;;;;;;;5042119;28;19917;-72
2022/02/09 18:37:56;;;;;;;;;;;;;;;;;;5036087;28;19995;-72
2022/02/09 18:43:12;;;;;;;;;;;;;;;;;;5024173;28;20321;-72
2022/02/09 18:45:50;;;;;;;;;;;;;;;;;;5038045;28;19913;-69
2022/02/09 19:04:34;;;;;;;;;;;;;;;;;;5038015;28;19919;-71
2022/02/09 19:48:39;;;;;;;;;;;;;;;;;;5040408;28;20397;-73
2022/02/09 19:56:12;;;;;;;;;;;;;;;;;;5036581;28;20515;-71
2022/02/09 19:58:45;;;;;;;;;;;;;;;;;;5042151;28;20373;-71
2022/02/09 20:01:14;;;;;;;;;;;;;;;;;;5034902;28;19956;-71
2022/02/09 20:03:41;;;;;;;;;;;;;;;;;;5039716;28;19988;-72
2022/02/09 20:06:07;;;;;;;;;;;;;;;;;;5040507;28;19916;-71
2022/02/09 20:08:37;;;;;;;;;;;;;;;;;;5050479;28;19920;-71
2022/02/09 20:11:04;;;;;;;;;;;;;;;;;;5034009;28;20392;-72
2022/02/09 20:13:29;;;;;;;;;;;;;;;;;;5051845;28;20003;-71
2022/02/09 20:15:55;;;;;;;;;;;;;;;;;;5039157;28;20003;-71
2022/02/09 20:18:20;;;;;;;;;;;;;;;;;;5036046;28;19917;-72
2022/02/09 20:20:46;;;;;;;;;;;;;;;;;;5060347;28;19920;-72
2022/02/09 20:23:12;;;;;;;;;;;;;;;;;;5040120;28;19963;-72
2022/02/09 20:25:38;;;;;;;;;;;;;;;;;;5045363;28;20015;-72
2022/02/09 20:28:06;;;;;;;;;;;;;;;;;;5038412;28;20319;-71
2022/02/09 20:30:38;;;;;;;;;;;;;;;;;;5060413;28;19913;-70
2022/02/09 20:33:10;;;;;;;;;;;;;;;;;;5039809;28;19947;-71
2022/02/09 20:35:35;;;;;;;;;;;;;;;;;;5046059;28;19913;-70
2022/02/09 20:38:01;;;;;;;;;;;;;;;;;;5039176;28;20385;-71
2022/02/09 20:40:46;;;;;;;;;;;;;;;;;;5037411;28;19921;-72
2022/02/09 20:43:13;;;;;;;;;;;;;;;;;;5038989;28;19916;-71
2022/02/09 20:45:47;;;;;;;;;;;;;;;;;;5041291;28;19943;-71
2022/02/09 20:48:15;;;;;;;;;;;;;;;;;;5044029;28;19917;-72
2022/02/09 20:50:42;;;;;;;;;;;;;;;;;;5044693;28;19920;-70
2022/02/09 20:53:08;;;;;;;;;;;;;;;;;;5039733;28;19917;-71
2022/02/09 20:55:34;;;;;;;;;;;;;;;;;;5044327;28;20062;-71
2022/02/09 20:58:00;;;;;;;;;;;;;;;;;;5039891;28;20365;-70
2022/02/09 21:00:36;;;;;;;;;;;;;;;;;;5042661;28;19913;-72
2022/02/09 21:06:08;;;;;;;;;;;;;;;;;;5039166;28;19924;-72
2022/02/09 21:08:46;;;;;;;;;;;;;;;;;;5033729;28;20027;-70
2022/02/09 21:14:09;;;;;;;;;;;;;;;;;;5049376;28;19958;-71
2022/02/09 21:22:35;;;;;;;;;;;;;;;;;;5043882;28;19959;-73
2022/02/09 21:54:42;;;;;;;;;;;;;;;;;;5038760;28;20035;-72
2022/02/09 21:57:20;;;;;;;;;;;;;;;;;;5041488;28;19921;-70
2022/02/09 22:16:26;;;;;;;;;;;;;;;;;;5042538;28;19939;-72
2022/02/09 22:55:34;;;;;;;;;;;;;;;;;;5029830;28;20322;-72
2022/02/09 22:58:04;;;;;;;;;;;;;;;;;;5028282;28;19960;-71
2022/02/09 23:03:21;;;;;;;;;;;;;;;;;;5029996;28;19932;-72
2022/02/09 23:14:00;;;;;;;;;;;;;;;;;;5029636;28;20357;-71
2022/02/09 23:16:49;;;;;;;;;;;;;;;;;;5029080;28;19952;-72
2022/02/09 23:20:08;;;;;;;;;;;;;;;;;;5029140;28;20372;-71
